Time;durP1;ratioP1;P1;durP2;ratioP2;P2;SDS_P1;SDS_P2;PMS_P1;PMS_P2;Temp;Humidity;BMP_temperature;BMP_pressure;BME280_temperature;BME280_humidity;BME280_pressure;Samples;Min_cycle;Max_cycle;Signal;HPM_P1;HPM_P2
2022/05/28 00:00:53;;;;;;;35.28;22.15;;;19.30;66.80;;;;;;4973666;28;20034;-74
2022/05/28 00:03:22;;;;;;;38.33;21.38;;;19.20;66.70;;;;;;4973647;28;20466;-74
2022/05/28 00:05:48;;;;;;;31.60;22.20;;;19.30;66.80;;;;;;4972285;28;20031;-74
2022/05/28 00:08:14;;;;;;;31.17;21.58;;;19.20;66.80;;;;;;4973605;28;20023;-73
2022/05/28 00:10:40;;;;;;;35.85;21.45;;;19.30;66.90;;;;;;4973689;28;20070;-73
2022/05/28 00:13:05;;;;;;;29.48;20.73;;;19.20;66.90;;;;;;4956376;28;20531;-74
2022/05/28 00:15:31;;;;;;;36.25;21.92;;;19.30;67.10;;;;;;4972187;28;20085;-74
2022/05/28 00:17:58;;;;;;;31.83;21.48;;;19.20;67.00;;;;;;4972313;28;20489;-74
2022/05/28 00:20:25;;;;;;;31.77;21.05;;;19.20;67.10;;;;;;4973059;28;20033;-74
2022/05/28 00:22:50;;;;;;;32.17;19.83;;;19.20;67.20;;;;;;4972385;28;20043;-74
2022/05/28 00:25:16;;;;;;;29.60;19.70;;;19.20;67.10;;;;;;4972354;28;20592;-74
2022/05/28 00:27:42;;;;;;;29.42;19.73;;;19.20;68.20;;;;;;4956437;28;20485;-74
2022/05/28 00:30:09;;;;;;;32.00;19.80;;;19.20;67.20;;;;;;4973211;28;20489;-74
2022/05/28 00:32:34;;;;;;;34.78;20.60;;;19.20;67.20;;;;;;4975266;28;20081;-74
2022/05/28 00:35:00;;;;;;;29.58;21.00;;;19.30;67.40;;;;;;4976946;28;20437;-74
2022/05/28 00:37:26;;;;;;;29.70;20.25;;;19.20;67.30;;;;;;4976332;28;20039;-74
2022/05/28 00:39:52;;;;;;;27.38;19.50;;;19.20;67.30;;;;;;4977419;28;20033;-74
2022/05/28 00:42:17;;;;;;;29.23;19.73;;;19.20;67.30;;;;;;4976141;28;20023;-74
2022/05/28 00:44:43;;;;;;;30.63;20.48;;;19.20;67.40;;;;;;4975806;28;20023;-74
2022/05/28 00:47:09;;;;;;;31.50;19.83;;;19.20;67.40;;;;;;4977226;28;20510;-74
2022/05/28 00:49:34;;;;;;;34.20;18.75;;;19.20;67.30;;;;;;4975707;28;20027;-74
2022/05/28 00:52:02;;;;;;;32.30;19.42;;;19.30;67.50;;;;;;4975847;28;20101;-74
2022/05/28 00:54:33;;;;;;;31.25;19.35;;;19.30;67.50;;;;;;4976944;28;20046;-74
2022/05/28 00:57:01;;;;;;;28.10;18.90;;;19.20;67.50;;;;;;4976755;28;20015;-74
2022/05/28 00:59:27;;;;;;;33.10;19.30;;;19.20;67.50;;;;;;4975697;28;20433;-74
2022/05/28 01:01:56;;;;;;;26.58;19.05;;;19.20;67.50;;;;;;4976835;28;20035;-74
2022/05/28 01:04:50;;;;;;;28.38;19.35;;;19.30;67.50;;;;;;4959973;28;20472;-74
2022/05/28 01:07:37;;;;;;;28.48;19.02;;;19.20;67.50;;;;;;4975914;28;20121;-74
2022/05/28 01:10:21;;;;;;;28.55;18.63;;;19.20;67.50;;;;;;4976647;28;20031;-74
2022/05/28 01:13:11;;;;;;;27.10;18.73;;;19.30;67.60;;;;;;4975617;28;20097;-74
2022/05/28 01:15:43;;;;;;;28.35;18.30;;;19.20;67.50;;;;;;4976450;28;20027;-74
2022/05/28 01:18:24;;;;;;;25.67;17.73;;;19.20;67.50;;;;;;4960180;28;20026;-74
2022/05/28 01:20:52;;;;;;;27.67;18.38;;;19.20;67.50;;;;;;4974974;28;20093;-74
2022/05/28 01:23:40;;;;;;;27.40;18.02;;;19.20;67.60;;;;;;4975239;28;20029;-74
2022/05/28 01:26:18;;;;;;;28.80;18.20;;;19.20;67.50;;;;;;4975407;28;20383;-74
2022/05/28 01:28:46;;;;;;;28.55;19.02;;;19.20;67.60;;;;;;4976476;28;20051;-74
2022/05/28 01:31:12;;;;;;;26.60;17.52;;;19.20;67.60;;;;;;4975013;28;20097;-74
2022/05/28 01:33:38;;;;;;;27.80;18.73;;;19.20;67.50;;;;;;4958889;28;20497;-74
2022/05/28 01:36:05;;;;;;;27.75;17.55;;;19.20;67.60;;;;;;4942771;28;20483;-74
2022/05/28 01:38:32;;;;;;;30.30;17.88;;;19.20;67.60;;;;;;4975210;28;20023;-74
2022/05/28 01:40:57;;;;;;;26.00;17.05;;;19.20;67.70;;;;;;4958985;28;20027;-74
2022/05/28 01:43:23;;;;;;;30.85;17.85;;;19.20;67.60;;;;;;4957881;28;20106;-75
2022/05/28 01:45:50;;;;;;;25.13;16.98;;;19.20;67.70;;;;;;4958732;28;20441;-74
2022/05/28 01:48:16;;;;;;;29.58;18.10;;;19.20;67.70;;;;;;4974636;28;20034;-74
2022/05/28 01:50:46;;;;;;;27.35;17.48;;;19.20;67.70;;;;;;4958925;28;20046;-74
2022/05/28 01:55:59;;;;;;;28.10;17.60;;;19.20;67.70;;;;;;4974975;28;20034;-74
2022/05/28 01:58:25;;;;;;;30.10;16.58;;;19.20;67.70;;;;;;4958528;28;20031;-74
2022/05/28 02:00:50;;;;;;;28.27;16.23;;;19.20;67.70;;;;;;4958734;28;20027;-74
2022/05/28 02:03:16;;;;;;;27.85;16.58;;;19.20;67.80;;;;;;4974362;28;20446;-74
2022/05/28 02:05:41;;;;;;;28.95;17.08;;;19.20;67.80;;;;;;4974549;28;20110;-74
2022/05/28 02:08:07;;;;;;;24.02;17.10;;;19.20;67.70;;;;;;4958462;28;20042;-74
2022/05/28 02:10:33;;;;;;;24.65;16.75;;;19.20;67.70;;;;;;4975589;28;20076;-74
2022/05/28 02:13:09;;;;;;;26.27;16.02;;;19.20;67.70;;;;;;4958364;28;20150;-74
2022/05/28 02:15:55;;;;;;;25.48;15.20;;;19.20;67.80;;;;;;4974343;28;20019;-74
2022/05/28 02:18:48;;;;;;;24.38;16.67;;;19.20;67.90;;;;;;4972891;28;20027;-75
2022/05/28 02:21:31;;;;;;;25.27;15.68;;;19.20;67.80;;;;;;4970780;28;20022;-74
2022/05/28 02:24:01;;;;;;;24.55;15.88;;;19.20;67.80;;;;;;4970242;28;20019;-74
2022/05/28 02:26:48;;;;;;;26.58;16.20;;;19.20;67.80;;;;;;4970228;28;20058;-74
2022/05/28 02:29:14;;;;;;;23.75;15.23;;;19.20;67.80;;;;;;4971485;28;20390;-74
2022/05/28 02:31:43;;;;;;;20.75;14.88;;;19.20;67.80;;;;;;4955654;28;20070;-74
2022/05/28 02:34:09;;;;;;;22.63;14.68;;;19.20;67.80;;;;;;4972879;28;20043;-74
2022/05/28 02:36:35;;;;;;;25.55;15.50;;;19.20;67.90;;;;;;4975659;28;20022;-75
2022/05/28 02:39:01;;;;;;;23.35;15.82;;;19.20;67.90;;;;;;4974331;28;20078;-74
2022/05/28 02:41:26;;;;;;;26.17;15.93;;;19.20;68.00;;;;;;4974596;28;20081;-74
2022/05/28 02:43:52;;;;;;;22.73;15.20;;;19.20;67.90;;;;;;4975567;28;20461;-74
2022/05/28 02:46:18;;;;;;;23.13;14.70;;;19.20;67.90;;;;;;4974308;28;20046;-74
2022/05/28 02:48:46;;;;;;;20.98;14.45;;;19.20;67.90;;;;;;4972996;28;20041;-74
2022/05/28 02:51:14;;;;;;;23.02;14.90;;;19.20;68.00;;;;;;4973604;28;20105;-74
2022/05/28 02:53:39;;;;;;;21.83;15.30;;;19.20;68.00;;;;;;4973692;28;20378;-74
2022/05/28 02:56:06;;;;;;;20.90;14.65;;;19.20;68.00;;;;;;4957266;28;20031;-74
2022/05/28 02:58:31;;;;;;;19.73;14.40;;;19.20;68.00;;;;;;4974799;28;20024;-74
2022/05/28 03:00:58;;;;;;;23.35;14.95;;;19.20;68.10;;;;;;4973323;28;20038;-74
2022/05/28 03:03:24;;;;;;;22.75;14.40;;;19.20;68.10;;;;;;4973368;28;20362;-74
2022/05/28 03:05:50;;;;;;;21.10;14.10;;;19.20;68.10;;;;;;4957365;28;20034;-75
2022/05/28 03:08:16;;;;;;;21.55;14.10;;;19.20;68.10;;;;;;4973174;28;20030;-74
2022/05/28 03:10:42;;;;;;;22.30;13.80;;;19.20;68.10;;;;;;4971808;28;20038;-73
2022/05/28 03:13:08;;;;;;;26.65;15.10;;;19.20;68.20;;;;;;4972606;28;20031;-74
2022/05/28 03:15:34;;;;;;;19.27;14.88;;;19.20;68.20;;;;;;4970848;28;20027;-74
2022/05/28 03:18:02;;;;;;;21.48;14.13;;;19.20;68.10;;;;;;4971627;28;20026;-74
2022/05/28 03:20:28;;;;;;;24.30;14.10;;;19.20;68.10;;;;;;4971178;28;20034;-74
2022/05/28 03:22:54;;;;;;;20.65;13.73;;;19.20;68.10;;;;;;4972590;28;20023;-74
2022/05/28 03:25:19;;;;;;;19.38;14.18;;;19.20;68.20;;;;;;4971763;28;20041;-74
2022/05/28 03:27:45;;;;;;;21.42;14.50;;;19.20;68.20;;;;;;4956886;28;20393;-74
2022/05/28 03:30:11;;;;;;;22.17;14.00;;;19.20;68.20;;;;;;4973831;28;20027;-74
2022/05/28 03:32:37;;;;;;;21.02;13.98;;;19.20;68.20;;;;;;4973242;28;20102;-74
2022/05/28 03:35:03;;;;;;;20.27;13.90;;;19.20;68.20;;;;;;4972871;28;20105;-74
2022/05/28 03:37:28;;;;;;;20.10;14.52;;;19.20;68.20;;;;;;4956604;28;20026;-74
2022/05/28 03:39:54;;;;;;;19.33;13.70;;;19.20;68.20;;;;;;4974093;28;20039;-74
2022/05/28 03:42:19;;;;;;;23.20;14.27;;;19.20;68.20;;;;;;4973754;28;20057;-74
2022/05/28 03:44:45;;;;;;;21.42;13.52;;;19.20;68.30;;;;;;4972564;28;20054;-74
2022/05/28 03:47:11;;;;;;;20.70;13.48;;;19.20;68.30;;;;;;4973841;28;20382;-74
2022/05/28 03:49:38;;;;;;;18.83;13.45;;;19.20;68.30;;;;;;4973807;28;20497;-74
2022/05/28 03:52:04;;;;;;;18.55;13.65;;;19.20;68.20;;;;;;4956790;28;20023;-74
2022/05/28 03:54:30;;;;;;;22.65;13.43;;;19.20;68.30;;;;;;4973790;28;20030;-74
2022/05/28 03:56:58;;;;;;;18.85;12.18;;;19.20;68.20;;;;;;4956475;28;20393;-74
2022/05/28 03:59:24;;;;;;;17.85;13.07;;;19.20;68.20;;;;;;4972396;28;20019;-74
2022/05/28 04:01:50;;;;;;;22.13;14.13;;;19.20;68.30;;;;;;4973843;28;20512;-74
2022/05/28 04:04:16;;;;;;;17.83;12.77;;;19.20;68.30;;;;;;4973712;28;20065;-74
2022/05/28 04:06:41;;;;;;;19.67;12.55;;;19.10;68.20;;;;;;4972070;28;20030;-74
2022/05/28 04:09:07;;;;;;;20.40;13.13;;;19.20;68.30;;;;;;4972370;28;20028;-74
2022/05/28 04:11:33;;;;;;;19.77;12.55;;;19.20;68.20;;;;;;4956387;28;20085;-74
2022/05/28 04:13:58;;;;;;;14.95;12.35;;;19.20;68.30;;;;;;4973494;28;20034;-74
2022/05/28 04:16:24;;;;;;;20.25;13.02;;;19.20;68.30;;;;;;4973423;28;20510;-74
2022/05/28 04:18:50;;;;;;;16.70;12.50;;;19.10;68.30;;;;;;4972429;28;20505;-74
2022/05/28 04:21:17;;;;;;;17.80;12.60;;;19.10;68.30;;;;;;4972147;28;20489;-74
2022/05/28 04:23:42;;;;;;;17.92;12.05;;;19.10;68.40;;;;;;4973364;28;20025;-74
2022/05/28 04:26:08;;;;;;;17.95;12.43;;;19.10;68.30;;;;;;4972354;28;20031;-74
2022/05/28 04:28:34;;;;;;;19.85;12.43;;;19.10;68.30;;;;;;4973428;28;20110;-74
2022/05/28 04:30:59;;;;;;;18.38;12.88;;;19.20;68.30;;;;;;4972190;28;20619;-74
2022/05/28 04:33:25;;;;;;;16.10;11.85;;;19.10;68.30;;;;;;4973339;28;20494;-74
2022/05/28 04:35:51;;;;;;;18.58;12.40;;;19.10;68.30;;;;;;4973478;28;20034;-74
2022/05/28 04:38:16;;;;;;;17.80;12.88;;;19.10;68.30;;;;;;4972223;28;20023;-75
2022/05/28 04:40:42;;;;;;;18.08;11.93;;;19.10;68.30;;;;;;4973505;28;20031;-75
2022/05/28 04:43:08;;;;;;;18.02;12.27;;;19.10;68.30;;;;;;4973239;28;20027;-75
2022/05/28 04:45:33;;;;;;;17.25;11.88;;;19.10;68.40;;;;;;4973185;28;20051;-74
2022/05/28 04:47:59;;;;;;;15.43;12.27;;;19.10;68.40;;;;;;4973480;28;20027;-74
2022/05/28 04:50:25;;;;;;;17.25;11.82;;;19.10;68.40;;;;;;4971935;28;20037;-75
2022/05/28 04:52:50;;;;;;;15.82;11.55;;;19.10;68.40;;;;;;4971926;28;20027;-74
2022/05/28 04:55:16;;;;;;;15.18;11.45;;;19.10;68.50;;;;;;4973046;28;20031;-74
2022/05/28 04:57:42;;;;;;;18.33;12.10;;;19.10;68.40;;;;;;4972957;28;20121;-74
2022/05/28 05:00:10;;;;;;;17.23;12.20;;;19.10;68.50;;;;;;4972075;28;20621;-74
2022/05/28 05:02:36;;;;;;;16.65;11.40;;;19.10;68.50;;;;;;4971948;28;20057;-74
2022/05/28 05:05:02;;;;;;;17.48;12.00;;;19.10;68.50;;;;;;4973116;28;20074;-74
2022/05/28 05:07:27;;;;;;;17.73;11.48;;;19.10;68.50;;;;;;4972957;28;20050;-74
2022/05/28 05:09:53;;;;;;;18.25;11.55;;;19.10;68.50;;;;;;4973204;28;20054;-74
2022/05/28 05:12:19;;;;;;;18.13;11.68;;;19.10;68.50;;;;;;4972744;28;20497;-75
2022/05/28 05:14:45;;;;;;;15.02;11.23;;;19.10;68.50;;;;;;4973133;28;20114;-74
2022/05/28 05:17:11;;;;;;;18.02;11.82;;;19.10;68.50;;;;;;4973534;28;20146;-74
2022/05/28 05:19:36;;;;;;;19.67;12.00;;;19.10;68.50;;;;;;4975021;28;20371;-74
2022/05/28 05:22:02;;;;;;;15.13;10.65;;;19.10;68.50;;;;;;4976490;28;20015;-74
2022/05/28 05:24:27;;;;;;;16.02;11.02;;;19.10;68.50;;;;;;4976454;28;20023;-74
2022/05/28 05:26:53;;;;;;;16.55;11.95;;;19.10;68.50;;;;;;4976160;28;20485;-74
2022/05/28 05:29:19;;;;;;;14.32;10.45;;;19.10;68.50;;;;;;4976444;28;20027;-74
2022/05/28 05:31:44;;;;;;;14.15;11.00;;;19.10;68.50;;;;;;4976164;28;20564;-74
2022/05/28 05:34:10;;;;;;;16.70;11.02;;;19.10;68.50;;;;;;4976419;28;20404;-74
2022/05/28 05:36:36;;;;;;;18.17;11.10;;;19.10;68.50;;;;;;4975100;28;20102;-74
2022/05/28 05:39:02;;;;;;;15.85;10.63;;;19.10;68.50;;;;;;4976138;28;20035;-74
2022/05/28 05:41:27;;;;;;;17.65;10.93;;;19.10;68.50;;;;;;4975962;28;20082;-74
2022/05/28 05:43:53;;;;;;;15.30;10.85;;;19.10;68.60;;;;;;4976173;28;20027;-74
2022/05/28 05:46:19;;;;;;;15.05;10.93;;;19.10;68.70;;;;;;4974814;28;20492;-74
2022/05/28 05:48:44;;;;;;;14.93;10.68;;;19.10;68.60;;;;;;4976216;28;20034;-74
2022/05/28 05:51:14;;;;;;;14.85;10.85;;;19.10;68.60;;;;;;4958995;28;20394;-75
2022/05/28 05:53:40;;;;;;;14.70;10.68;;;19.10;68.70;;;;;;4958757;28;20473;-74
2022/05/28 05:56:06;;;;;;;16.08;11.00;;;19.10;68.70;;;;;;4958530;28;20030;-74
2022/05/28 05:58:34;;;;;;;16.35;10.77;;;19.10;68.70;;;;;;4974620;28;20027;-74
2022/05/28 06:01:01;;;;;;;16.88;10.65;;;19.10;68.70;;;;;;4974244;28;20022;-74
2022/05/28 06:03:26;;;;;;;14.65;9.98;;;19.10;68.70;;;;;;4973606;28;20473;-74
2022/05/28 06:05:59;;;;;;;18.80;9.82;;;19.10;68.70;;;;;;4974334;28;20023;-74
2022/05/28 06:08:25;;;;;;;12.55;9.32;;;19.10;68.80;;;;;;4972795;28;20038;-74
2022/05/28 06:10:51;;;;;;;11.75;9.13;;;19.10;68.90;;;;;;4973211;28;20026;-73
2022/05/28 06:13:16;;;;;;;13.50;9.05;;;19.10;68.70;;;;;;4972920;28;20050;-74
2022/05/28 06:15:42;;;;;;;12.82;9.13;;;19.00;68.40;;;;;;4974221;28;20019;-74
2022/05/28 06:18:07;;;;;;;14.07;9.32;;;19.10;68.50;;;;;;4973317;28;20113;-74
2022/05/28 06:20:34;;;;;;;11.13;8.57;;;19.10;68.50;;;;;;4975186;28;20026;-75
2022/05/28 06:23:01;;;;;;;13.93;9.38;;;19.10;68.40;;;;;;4974077;28;20070;-75
2022/05/28 06:25:27;;;;;;;13.88;8.60;;;19.10;68.50;;;;;;4958196;28;20029;-74
2022/05/28 06:27:53;;;;;;;11.73;8.05;;;19.10;68.40;;;;;;4975342;28;20114;-75
2022/05/28 06:30:18;;;;;;;16.92;8.88;;;19.10;68.40;;;;;;4974588;28;20027;-74
2022/05/28 06:32:44;;;;;;;15.20;8.88;;;19.00;68.40;;;;;;4974110;28;20054;-75
2022/05/28 06:35:10;;;;;;;14.68;8.57;;;19.10;68.50;;;;;;4973992;28;20034;-74
2022/05/28 06:37:36;;;;;;;10.45;7.93;;;19.00;68.40;;;;;;4974952;28;20031;-75
2022/05/28 06:40:03;;;;;;;13.93;8.95;;;19.00;68.40;;;;;;4974151;28;20015;-75
2022/05/28 06:42:28;;;;;;;13.02;8.15;;;19.00;68.40;;;;;;4973652;28;20078;-74
2022/05/28 06:44:55;;;;;;;10.95;8.30;;;19.10;68.50;;;;;;4974630;28;20047;-74
2022/05/28 06:47:21;;;;;;;12.15;8.32;;;19.00;68.50;;;;;;4974957;28;20093;-75
2022/05/28 06:51:01;;;;;;;11.70;8.73;;;19.00;68.40;;;;;;4973799;28;20129;-75
2022/05/28 06:52:33;;;;;;;11.25;7.72;;;19.10;68.50;;;;;;4974486;28;20018;-74
2022/05/28 06:54:58;;;;;;;13.57;8.48;;;19.00;68.50;;;;;;4973541;28;20609;-74
2022/05/28 06:57:25;;;;;;;13.18;8.90;;;19.00;68.60;;;;;;4974634;28;20034;-75
2022/05/28 06:59:54;;;;;;;11.43;7.78;;;19.10;68.60;;;;;;4974796;28;20032;-75
2022/05/28 07:02:20;;;;;;;12.88;7.75;;;19.10;68.60;;;;;;4973562;28;20027;-75
2022/05/28 07:04:46;;;;;;;16.40;8.43;;;19.00;68.60;;;;;;4974400;28;20406;-75
2022/05/28 07:07:12;;;;;;;11.77;8.23;;;19.00;68.60;;;;;;4973217;28;20027;-74
2022/05/28 07:09:37;;;;;;;10.57;8.07;;;19.00;68.60;;;;;;4973196;28;20026;-74
2022/05/28 07:12:03;;;;;;;11.93;8.00;;;19.00;68.70;;;;;;4973555;28;20022;-75
2022/05/28 07:14:29;;;;;;;11.07;7.80;;;19.00;68.70;;;;;;4974341;28;20019;-75
2022/05/28 07:16:56;;;;;;;11.35;7.90;;;19.00;68.70;;;;;;4974092;28;20391;-75
2022/05/28 07:19:23;;;;;;;9.48;7.70;;;19.00;68.70;;;;;;4974495;28;20069;-75
2022/05/28 07:21:50;;;;;;;12.00;7.80;;;19.10;68.80;;;;;;4961645;28;20557;-74
2022/05/28 07:24:15;;;;;;;12.88;7.85;;;19.10;68.80;;;;;;4974308;28;20075;-75
2022/05/28 07:26:41;;;;;;;11.13;8.30;;;19.10;68.80;;;;;;4973933;28;20050;-75
2022/05/28 07:29:08;;;;;;;12.93;7.80;;;19.10;68.80;;;;;;4974562;28;20105;-75
2022/05/28 07:31:34;;;;;;;10.95;7.50;;;19.00;68.80;;;;;;4973338;28;20026;-74
2022/05/28 07:34:00;;;;;;;12.50;7.82;;;19.00;68.80;;;;;;4973300;28;20027;-74
2022/05/28 07:36:26;;;;;;;13.45;7.50;;;19.00;68.80;;;;;;4972675;28;20031;-74
2022/05/28 07:38:52;;;;;;;11.00;7.55;;;19.10;68.90;;;;;;4973520;28;20388;-74
2022/05/28 07:41:20;;;;;;;10.55;7.57;;;19.10;68.90;;;;;;4972114;28;20118;-74
2022/05/28 07:43:47;;;;;;;9.95;7.78;;;19.00;68.90;;;;;;4974093;28;20023;-75
2022/05/28 07:46:24;;;;;;;10.25;7.30;;;19.10;68.90;;;;;;4973186;28;20138;-75
2022/05/28 07:48:50;;;;;;;10.77;7.50;;;19.00;68.90;;;;;;4973355;28;20105;-74
2022/05/28 07:51:15;;;;;;;9.98;7.50;;;19.10;68.90;;;;;;4973154;28;20426;-75
2022/05/28 07:53:41;;;;;;;11.73;7.43;;;19.10;69.00;;;;;;4972641;28;20030;-74
2022/05/28 07:56:08;;;;;;;11.23;7.38;;;19.10;69.00;;;;;;4973897;28;20027;-75
2022/05/28 07:58:34;;;;;;;10.25;6.15;;;19.10;69.00;;;;;;4972357;28;20022;-77
2022/05/28 08:01:02;;;;;;;9.57;4.65;;;19.10;67.70;;;;;;4954057;28;20030;-77
2022/05/28 08:03:29;;;;;;;12.77;3.30;;;19.00;65.70;;;;;;4971394;28;20022;-77
2022/05/28 08:05:55;;;;;;;11.85;3.45;;;18.90;62.50;;;;;;4971718;28;20031;-77
2022/05/28 08:08:22;;;;;;;8.52;2.53;;;18.70;64.20;;;;;;4971337;28;20162;-77
2022/05/28 08:10:48;;;;;;;11.57;2.90;;;18.70;63.60;;;;;;4970987;28;20023;-77
2022/05/28 08:13:16;;;;;;;11.05;2.45;;;18.70;63.40;;;;;;4970064;28;20497;-78
2022/05/28 08:15:42;;;;;;;9.32;2.30;;;18.60;63.60;;;;;;4972986;28;20018;-77
2022/05/28 08:18:09;;;;;;;8.25;2.30;;;18.70;63.80;;;;;;4971074;28;20101;-77
2022/05/28 08:23:19;;;;;;;4.95;1.70;;;18.70;64.00;;;;;;4972819;28;20030;-79
2022/05/28 08:25:45;;;;;;;8.20;1.90;;;18.70;63.00;;;;;;4972210;28;20405;-78
2022/05/28 08:28:11;;;;;;;7.00;1.67;;;18.70;64.10;;;;;;4972341;28;20031;-80
2022/05/28 08:30:38;;;;;;;6.80;2.22;;;18.70;62.40;;;;;;4973608;28;20545;-77
2022/05/28 08:33:04;;;;;;;8.27;1.90;;;18.60;62.70;;;;;;4972480;28;20030;-77
2022/05/28 08:35:30;;;;;;;9.40;1.77;;;18.60;62.70;;;;;;4972009;28;20038;-77
2022/05/28 08:37:55;;;;;;;9.15;2.20;;;18.60;62.60;;;;;;4972147;28;20023;-78
2022/05/28 08:40:23;;;;;;;5.20;2.28;;;18.60;62.30;;;;;;4973371;28;20037;-77
2022/05/28 08:42:49;;;;;;;7.35;1.50;;;18.60;62.20;;;;;;4973272;28;20019;-77
2022/05/28 08:45:15;;;;;;;9.10;2.22;;;18.60;61.30;;;;;;4971923;28;20057;-77
2022/05/28 08:47:42;;;;;;;7.78;2.35;;;18.50;61.50;;;;;;4972143;28;20404;-78
2022/05/28 08:50:08;;;;;;;10.13;2.00;;;18.60;61.60;;;;;;4971787;28;20052;-76
2022/05/28 08:52:48;;;;;;;10.63;2.03;;;18.60;61.50;;;;;;4973453;28;20489;-78
2022/05/28 08:55:17;;;;;;;4.60;1.58;;;18.60;61.30;;;;;;4959641;28;20037;-77
2022/05/28 08:57:59;;;;;;;5.65;1.45;;;18.50;60.50;;;;;;4975704;28;20030;-79
2022/05/28 09:00:37;;;;;;;6.15;1.80;;;18.50;61.10;;;;;;4975747;28;20391;-77
2022/05/28 09:03:07;;;;;;;7.07;2.00;;;18.50;60.70;;;;;;4975343;28;20067;-78
2022/05/28 09:05:38;;;;;;;7.65;2.20;;;18.50;60.70;;;;;;4975517;28;20109;-78
2022/05/28 09:08:04;;;;;;;8.50;1.50;;;18.50;59.60;;;;;;4975766;28;20022;-77
2022/05/28 09:10:40;;;;;;;8.38;2.03;;;18.50;60.00;;;;;;4975465;28;20038;-78
2022/05/28 09:13:11;;;;;;;6.20;1.80;;;18.50;60.10;;;;;;4975589;28;20097;-78
2022/05/28 09:15:36;;;;;;;7.80;1.85;;;18.50;60.30;;;;;;4974145;28;20442;-77
2022/05/28 09:18:02;;;;;;;8.25;1.77;;;18.50;60.10;;;;;;4973880;28;20105;-78
2022/05/28 09:20:39;;;;;;;6.88;1.75;;;18.50;59.90;;;;;;4973693;28;20117;-78
2022/05/28 09:23:05;;;;;;;7.05;2.00;;;18.50;60.00;;;;;;4973342;28;20078;-78
2022/05/28 09:25:34;;;;;;;42.80;6.05;;;18.50;60.40;;;;;;4973715;28;20435;-78
2022/05/28 09:28:06;;;;;;;21.33;2.72;;;18.50;62.60;;;;;;4973771;28;20078;-76
2022/05/28 09:30:31;;;;;;;18.25;3.78;;;18.60;62.50;;;;;;4973886;28;20404;-76
2022/05/28 09:33:04;;;;;;;19.40;2.60;;;18.70;63.80;;;;;;4974706;28;20026;-76
2022/05/28 09:36:14;;;;;;;15.23;2.03;;;18.70;62.10;;;;;;4973556;28;20408;-77
2022/05/28 09:39:07;;;;;;;21.88;3.40;;;18.60;62.00;;;;;;4973472;28;20102;-76
2022/05/28 09:42:03;;;;;;;7.90;2.03;;;18.60;61.70;;;;;;4973468;28;20023;-77
2022/05/28 09:44:53;;;;;;;16.83;2.58;;;18.60;61.50;;;;;;4974619;28;20085;-77
2022/05/28 09:47:19;;;;;;;12.43;2.20;;;18.60;61.40;;;;;;4973463;28;20162;-77
2022/05/28 09:49:55;;;;;;;14.38;2.50;;;18.60;61.50;;;;;;4974408;28;20110;-76
2022/05/28 09:52:26;;;;;;;14.63;3.47;;;18.70;61.60;;;;;;4973294;28;20058;-77
2022/05/28 09:54:52;;;;;;;8.52;2.17;;;18.60;61.30;;;;;;4973156;28;20022;-76
2022/05/28 09:57:23;;;;;;;13.60;2.28;;;18.60;61.80;;;;;;4973317;28;20146;-76
2022/05/28 09:59:54;;;;;;;7.97;1.98;;;18.60;61.30;;;;;;4971232;28;20018;-77
2022/05/28 10:02:32;;;;;;;11.27;2.22;;;18.60;60.80;;;;;;4974220;28;20014;-77
2022/05/28 10:05:09;;;;;;;10.57;2.40;;;18.60;60.90;;;;;;4971855;28;20015;-77
2022/05/28 10:07:41;;;;;;;10.48;2.42;;;18.60;60.90;;;;;;4971183;28;20042;-76
2022/05/28 10:10:20;;;;;;;8.52;1.83;;;18.60;60.90;;;;;;4973118;28;20080;-76
2022/05/28 10:12:46;;;;;;;10.57;2.08;;;18.70;60.70;;;;;;4972886;28;20025;-79
2022/05/28 10:15:14;;;;;;;9.02;1.83;;;18.60;60.30;;;;;;4972417;28;20117;-79
2022/05/28 10:17:42;;;;;;;9.43;1.85;;;18.60;60.00;;;;;;4972743;28;20022;-78
2022/05/28 10:20:19;;;;;;;9.30;2.38;;;18.60;60.20;;;;;;4972760;28;20030;-78
2022/05/28 10:22:46;;;;;;;9.25;1.90;;;18.60;60.10;;;;;;4973712;28;20450;-79
2022/05/28 10:25:31;;;;;;;4.82;1.30;;;18.60;60.00;;;;;;4972721;28;20465;-79
2022/05/28 10:27:57;;;;;;;10.75;2.00;;;18.70;59.90;;;;;;4972682;28;20026;-79
2022/05/28 10:30:24;;;;;;;9.80;2.00;;;18.70;60.50;;;;;;4972520;28;20027;-78
2022/05/28 10:32:51;;;;;;;9.43;1.95;;;18.70;60.20;;;;;;4973749;28;20030;-78
2022/05/28 10:35:25;;;;;;;9.00;1.80;;;18.70;60.70;;;;;;4972545;28;20030;-79
2022/05/28 10:37:51;;;;;;;7.15;1.65;;;18.70;60.30;;;;;;4970694;28;20019;-78
2022/05/28 10:40:20;;;;;;;6.93;1.50;;;18.70;60.60;;;;;;4972410;28;20027;-78
2022/05/28 10:42:46;;;;;;;5.70;1.67;;;18.70;60.90;;;;;;4970845;28;20113;-77
2022/05/28 10:45:11;;;;;;;5.65;1.73;;;18.70;60.70;;;;;;4972706;28;20084;-78
2022/05/28 10:48:21;;;;;;;6.10;1.63;;;18.70;60.60;;;;;;4970921;28;20023;-77
2022/05/28 10:51:11;;;;;;;5.45;1.48;;;18.70;60.50;;;;;;4988896;28;20081;-78
2022/05/28 10:53:43;;;;;;;7.35;2.30;;;18.80;60.80;;;;;;4960308;28;20022;-79
2022/05/28 10:56:17;;;;;;;7.65;1.63;;;18.80;61.10;;;;;;4987806;28;20046;-76
2022/05/28 10:59:11;;;;;;;7.15;1.88;;;18.80;60.70;;;;;;4971894;28;20640;-75
2022/05/28 11:01:48;;;;;;;7.35;1.38;;;18.80;60.50;;;;;;4973593;28;20058;-76
2022/05/28 11:04:42;;;;;;;9.23;1.50;;;18.80;60.50;;;;;;4972296;28;20019;-76
2022/05/28 11:07:35;;;;;;;8.50;1.55;;;18.80;60.70;;;;;;4958289;28;20057;-76
2022/05/28 11:10:21;;;;;;;10.80;1.85;;;18.80;60.00;;;;;;4988652;28;20046;-76
2022/05/28 11:13:08;;;;;;;9.73;1.42;;;18.80;60.60;;;;;;4974420;28;20165;-76
2022/05/28 11:15:45;;;;;;;5.43;1.20;;;18.80;60.50;;;;;;4988271;28;20041;-74
2022/05/28 11:18:35;;;;;;;4.97;1.35;;;18.80;60.60;;;;;;4987921;28;20038;-74
2022/05/28 11:21:13;;;;;;;6.05;1.40;;;18.80;61.00;;;;;;4982719;28;20062;-75
2022/05/28 11:24:01;;;;;;;5.40;1.40;;;18.80;60.70;;;;;;4972630;28;20027;-74
2022/05/28 11:26:57;;;;;;;5.05;1.20;;;18.80;60.20;;;;;;4970629;28;20030;-74
2022/05/28 11:29:22;;;;;;;8.60;1.52;;;18.80;59.30;;;;;;4970338;28;20030;-74
2022/05/28 11:31:52;;;;;;;4.85;1.40;;;18.90;60.00;;;;;;4972974;28;20031;-74
2022/05/28 11:34:20;;;;;;;7.20;1.50;;;18.80;59.40;;;;;;4969693;28;20516;-75
2022/05/28 11:37:01;;;;;;;4.65;1.58;;;18.80;59.80;;;;;;4969747;28;20177;-76
2022/05/28 11:39:40;;;;;;;4.88;1.40;;;18.80;59.50;;;;;;4969758;28;20437;-76
2022/05/28 11:42:09;;;;;;;3.88;1.38;;;18.80;59.90;;;;;;4971799;28;20022;-76
2022/05/28 11:44:42;;;;;;;4.95;1.58;;;18.80;59.50;;;;;;4970975;28;20030;-78
2022/05/28 11:47:16;;;;;;;;;;;18.90;58.90;;;;;;4971371;28;20039;-78
2022/05/28 11:52:42;;;;;;;7.93;1.30;;;18.80;56.80;;;;;;4971805;28;20090;-77
2022/05/28 11:55:19;;;;;;;6.15;1.15;;;18.80;58.60;;;;;;4970680;28;20038;-77
2022/05/28 11:58:01;;;;;;;5.18;1.50;;;18.80;57.90;;;;;;4954115;28;20552;-76
2022/05/28 12:00:28;;;;;;;6.40;1.70;;;18.80;59.00;;;;;;4970075;28;20011;-78
2022/05/28 12:02:57;;;;;;;5.63;1.38;;;18.90;59.30;;;;;;4970012;28;20496;-77
2022/05/28 12:05:24;;;;;;;3.75;1.30;;;18.90;58.50;;;;;;4970007;28;20027;-75
2022/05/28 12:07:57;;;;;;;5.15;1.63;;;18.90;58.60;;;;;;4969667;28;20468;-75
2022/05/28 12:10:52;;;;;;;5.20;1.65;;;18.90;58.50;;;;;;4969760;28;20162;-76
2022/05/28 12:13:46;;;;;;;7.93;2.40;;;18.90;56.70;;;;;;4985935;28;20042;-78
2022/05/28 12:16:22;;;;;;;8.23;2.92;;;18.80;54.30;;;;;;4972263;28;20429;-78
2022/05/28 12:19:13;;;;;;;7.25;2.33;;;18.80;55.70;;;;;;4972397;28;20036;-78
2022/05/28 12:21:39;;;;;;;8.98;2.47;;;18.90;56.00;;;;;;4966640;28;20394;-78
2022/05/28 12:24:09;;;;;;;7.40;1.92;;;18.90;56.00;;;;;;4953090;29;20035;-79
2022/05/28 12:26:55;;;;;;;9.70;2.22;;;18.90;56.30;;;;;;4953132;28;20031;-80
2022/05/28 12:30:01;;;;;;;7.10;1.75;;;18.90;55.60;;;;;;4957336;29;20516;-78
2022/05/28 12:32:52;;;;;;;5.53;1.60;;;18.90;56.70;;;;;;4957253;29;20560;-77
2022/05/28 12:35:25;;;;;;;4.93;1.50;;;19.00;56.40;;;;;;4956808;29;20521;-77
2022/05/28 12:38:02;;;;;;;6.40;1.60;;;19.00;56.40;;;;;;4956815;29;20047;-78
2022/05/28 12:40:38;;;;;;;3.83;1.52;;;19.00;55.80;;;;;;4957867;29;20042;-77
2022/05/28 12:43:15;;;;;;;6.72;2.10;;;19.10;56.20;;;;;;4958001;29;20061;-77
2022/05/28 12:45:45;;;;;;;11.20;1.98;;;19.00;55.70;;;;;;4973993;28;20062;-77
2022/05/28 12:48:24;;;;;;;8.65;1.58;;;19.10;55.00;;;;;;4959444;28;20061;-76
2022/05/28 12:51:11;;;;;;;5.00;1.35;;;19.10;55.00;;;;;;4975835;28;20034;-77
2022/05/28 12:53:59;;;;;;;5.90;1.60;;;19.10;55.50;;;;;;4976264;28;20059;-77
2022/05/28 12:56:34;;;;;;;6.53;1.20;;;19.10;54.30;;;;;;4975403;28;20474;-77
2022/05/28 12:59:14;;;;;;;6.18;1.52;;;19.10;55.60;;;;;;4976926;28;20074;-77